Time;durP1;ratioP1;P1;durP2;ratioP2;P2;SDS_P1;SDS_P2;PMS_P1;PMS_P2;Temp;Humidity;BMP_temperature;BMP_pressure;BME280_temperature;BME280_humidity;BME280_pressure;Samples;Min_cycle;Max_cycle;Signal;HPM_P1;HPM_P2
2022/02/24 00:03:08;;;;;;;0.00;0.00;;;;;;;6.19;95.21;101455.13;10474863;28;20016;-73
2022/02/24 00:08:08;;;;;;;0.00;0.00;;;;;;;6.18;96.27;101439.38;10498585;28;20023;-73
2022/02/24 00:13:08;;;;;;;0.00;0.00;;;;;;;6.20;95.64;101446.25;10498039;28;20028;-74
2022/02/24 00:18:09;;;;;;;0.00;0.00;;;;;;;6.23;94.90;101437.22;10497939;28;20291;-73
2022/02/24 00:23:09;;;;;;;0.00;0.00;;;;;;;6.29;93.79;101424.38;10495114;28;20141;-70
2022/02/24 00:28:09;;;;;;;0.00;0.00;;;;;;;6.31;94.17;101419.81;10499593;28;20019;-71
2022/02/24 00:33:09;;;;;;;0.00;0.00;;;;;;;6.29;93.97;101421.72;10500133;28;20044;-71
2022/02/24 00:38:10;;;;;;;0.10;0.10;;;;;;;6.28;94.68;101411.25;10500868;28;20559;-71
2022/02/24 00:43:10;;;;;;;0.00;0.00;;;;;;;6.22;94.93;101415.19;10499629;28;20020;-71
2022/02/24 00:48:10;;;;;;;0.00;0.00;;;;;;;6.13;95.25;101395.56;10499479;28;20017;-71
2022/02/24 00:53:11;;;;;;;0.10;0.10;;;;;;;6.01;95.67;101393.03;10498221;28;20302;-71
2022/02/24 00:58:11;;;;;;;0.00;0.00;;;;;;;5.90;95.71;101372.66;10496473;28;20282;-71
2022/02/24 01:03:11;;;;;;;0.10;0.10;;;;;;;5.84;96.04;101386.31;10498724;28;20107;-71
2022/02/24 01:08:12;;;;;;;0.00;0.00;;;;;;;5.80;97.06;101369.84;10498919;28;20765;-71
2022/02/24 01:13:12;;;;;;;0.00;0.00;;;;;;;5.71;98.07;101375.84;10498323;28;20055;-71
2022/02/24 01:18:13;;;;;;;0.00;0.00;;;;;;;5.60;98.17;101359.94;10497730;28;20024;-71
2022/02/24 01:23:14;;;;;;;0.00;0.00;;;;;;;5.51;98.23;101345.59;10478806;28;20044;-71
2022/02/24 01:28:14;;;;;;;0.00;0.00;;;;;;;5.44;99.38;101344.38;10498097;28;20395;-71
2022/02/24 01:33:14;;;;;;;0.00;0.00;;;;;;;5.43;100.00;101343.50;10497294;28;20029;-71
2022/02/24 01:38:15;;;;;;;0.00;0.00;;;;;;;5.49;100.00;101341.38;10479106;28;20031;-71
2022/02/24 01:43:15;;;;;;;0.00;0.00;;;;;;;5.51;100.00;101335.03;10497388;28;20499;-70
2022/02/24 01:48:15;;;;;;;0.00;0.00;;;;;;;5.53;100.00;101319.91;10497299;28;20090;-71
2022/02/24 01:53:16;;;;;;;0.00;0.00;;;;;;;5.59;100.00;101315.97;10493852;28;20024;-71
2022/02/24 01:58:19;;;;;;;0.00;0.00;;;;;;;5.63;99.98;101323.53;10496805;28;20384;-71
2022/02/24 02:03:19;;;;;;;0.00;0.00;;;;;;;5.66;100.00;101312.72;10496339;28;20031;-71
2022/02/24 02:08:20;;;;;;;0.00;0.00;;;;;;;5.70;99.98;101301.94;10497198;28;20498;-71
2022/02/24 02:13:20;;;;;;;0.00;0.00;;;;;;;5.67;100.00;101292.44;10477303;28;20413;-71
2022/02/24 02:18:21;;;;;;;0.00;0.00;;;;;;;5.71;100.00;101282.50;10496109;28;20479;-71
2022/02/24 02:23:21;;;;;;;0.00;0.00;;;;;;;5.72;99.64;101284.16;10494266;28;20073;-71
2022/02/24 02:28:22;;;;;;;0.00;0.00;;;;;;;5.74;99.92;101274.31;10477433;28;20394;-71
2022/02/24 02:33:22;;;;;;;0.10;0.10;;;;;;;5.75;100.00;101260.13;10495618;28;20024;-70
2022/02/24 02:38:22;;;;;;;0.00;0.00;;;;;;;5.74;99.61;101267.22;10495127;28;20274;-71
2022/02/24 02:43:22;;;;;;;0.00;0.00;;;;;;;5.77;99.27;101261.72;10495187;28;20263;-71
2022/02/24 02:48:23;;;;;;;0.00;0.00;;;;;;;5.80;98.56;101260.63;10494882;28;20266;-71
2022/02/24 02:53:23;;;;;;;0.00;0.00;;;;;;;5.81;98.69;101244.63;10494021;28;20028;-71
2022/02/24 02:58:23;;;;;;;0.00;0.00;;;;;;;5.83;98.04;101241.91;10476520;28;20033;-71
2022/02/24 03:03:24;;;;;;;0.00;0.00;;;;;;;5.83;97.66;101233.97;10494109;28;20437;-71
2022/02/24 03:08:25;;;;;;;0.10;0.10;;;;;;;5.84;96.48;101225.91;10494521;28;20407;-70
2022/02/24 03:13:25;;;;;;;0.00;0.00;;;;;;;5.87;96.40;101214.25;10493711;28;20024;-71
2022/02/24 03:18:25;;;;;;;0.00;0.00;;;;;;;5.99;92.81;101201.91;10493984;28;20047;-71
2022/02/24 03:23:26;;;;;;;0.10;0.10;;;;;;;6.05;93.30;101196.13;10493323;28;20024;-71
2022/02/24 03:28:26;;;;;;;0.00;0.00;;;;;;;6.11;91.46;101198.31;10493629;28;20342;-71
2022/02/24 03:33:26;;;;;;;0.00;0.00;;;;;;;6.18;90.62;101185.44;10493503;28;20028;-71
2022/02/24 03:38:27;;;;;;;0.00;0.00;;;;;;;6.19;90.67;101185.31;10492994;28;20082;-71
2022/02/24 03:43:28;;;;;;;0.10;0.10;;;;;;;6.22;92.32;101181.56;10493490;28;20083;-71
2022/02/24 03:48:28;;;;;;;0.10;0.10;;;;;;;6.18;91.81;101165.13;10493661;28;20059;-71
2022/02/24 03:53:28;;;;;;;0.00;0.00;;;;;;;6.14;90.19;101168.97;10491687;28;20032;-71
2022/02/24 03:58:29;;;;;;;0.00;0.00;;;;;;;6.18;89.68;101165.13;10493135;28;20066;-71
2022/02/24 04:03:29;;;;;;;0.00;0.00;;;;;;;6.21;88.70;101178.09;10473598;28;20024;-70
2022/02/24 04:08:29;;;;;;;0.00;0.00;;;;;;;6.28;88.47;101165.22;10475090;28;20025;-70
2022/02/24 04:13:29;;;;;;;0.00;0.00;;;;;;;6.32;86.82;101150.78;10492487;28;20078;-70
2022/02/24 04:18:30;;;;;;;0.00;0.00;;;;;;;6.39;84.68;101151.97;10493287;28;20032;-70
2022/02/24 04:23:30;;;;;;;0.00;0.00;;;;;;;6.41;84.52;101143.91;10490885;28;20062;-70
2022/02/24 04:28:30;;;;;;;0.07;0.07;;;;;;;6.38;84.13;101138.88;10492820;28;20262;-71
2022/02/24 04:33:31;;;;;;;0.00;0.00;;;;;;;6.36;83.77;101131.03;10492206;28;20033;-70
2022/02/24 04:38:31;;;;;;;0.00;0.00;;;;;;;6.33;84.40;101116.25;10492379;28;20075;-70
2022/02/24 04:43:31;;;;;;;0.00;0.00;;;;;;;6.31;84.32;101112.91;10491989;28;20025;-70
2022/02/24 04:48:32;;;;;;;0.00;0.00;;;;;;;6.28;85.02;101099.94;10492345;28;20031;-69
2022/02/24 04:53:32;;;;;;;0.10;0.10;;;;;;;6.25;86.16;101102.81;10497438;28;20488;-70
2022/02/24 04:58:33;;;;;;;0.10;0.10;;;;;;;6.18;87.50;101091.06;10492854;28;20086;-69
2022/02/24 05:03:34;;;;;;;0.00;0.00;;;;;;;6.12;88.34;101092.38;10484206;28;20028;-69
2022/02/24 05:08:34;;;;;;;0.00;0.00;;;;;;;6.07;88.41;101093.72;10478790;28;20036;-70
2022/02/24 05:13:34;;;;;;;0.10;0.10;;;;;;;6.05;89.99;101087.69;10496612;28;20487;-70
2022/02/24 05:18:35;;;;;;;0.00;0.00;;;;;;;6.01;90.50;101087.13;10492344;28;20031;-70
2022/02/24 05:23:37;;;;;;;0.00;0.00;;;;;;;5.97;90.61;101085.69;10495593;28;20108;-70
2022/02/24 05:28:37;;;;;;;0.00;0.00;;;;;;;5.93;90.72;101080.72;10497268;28;20270;-70
2022/02/24 05:33:37;;;;;;;0.00;0.00;;;;;;;5.92;92.04;101079.06;10479306;28;20023;-70
2022/02/24 05:38:38;;;;;;;0.00;0.00;;;;;;;5.86;93.46;101060.06;10497041;28;20055;-70
2022/02/24 05:43:38;;;;;;;0.00;0.00;;;;;;;5.82;94.14;101060.47;10497351;28;20472;-70
2022/02/24 05:48:38;;;;;;;0.00;0.00;;;;;;;5.77;94.49;101065.25;10492072;28;20020;-69
2022/02/24 05:53:39;;;;;;;0.00;0.00;;;;;;;5.76;96.40;101053.00;10488801;28;20020;-70
2022/02/24 05:58:39;;;;;;;0.00;0.00;;;;;;;5.75;97.02;101049.50;10495614;28;20258;-70
2022/02/24 06:03:39;;;;;;;0.00;0.00;;;;;;;5.73;97.89;101043.53;10492039;28;20468;-70
2022/02/24 06:08:39;;;;;;;0.00;0.00;;;;;;;5.71;98.38;101034.88;10495658;28;20020;-69
2022/02/24 06:13:40;;;;;;;0.00;0.00;;;;;;;5.67;99.16;101029.00;10494588;28;20023;-70
2022/02/24 06:18:42;;;;;;;0.00;0.00;;;;;;;5.70;98.50;101038.47;10493113;28;20017;-70
2022/02/24 06:23:43;;;;;;;0.10;0.10;;;;;;;5.71;99.07;101031.41;10490142;28;20032;-70
2022/02/24 06:28:43;;;;;;;0.00;0.00;;;;;;;5.74;98.77;101037.28;10496330;28;20028;-70
2022/02/24 06:33:43;;;;;;;0.00;0.00;;;;;;;5.74;98.30;101034.63;10494397;28;20386;-70
2022/02/24 06:38:43;;;;;;;0.03;0.03;;;;;;;5.74;99.29;101031.97;10491019;28;20837;-70
2022/02/24 06:43:44;;;;;;;0.00;0.00;;;;;;;5.73;99.27;101011.81;10485577;28;20365;-70
2022/02/24 06:48:44;;;;;;;0.00;0.00;;;;;;;5.74;98.92;101015.28;10493609;28;20032;-70
2022/02/24 06:53:45;;;;;;;0.00;0.00;;;;;;;5.75;99.22;101011.66;10475897;28;20111;-71
2022/02/24 06:58:45;;;;;;;0.00;0.00;;;;;;;5.76;99.04;100997.47;10493855;28;20028;-70
2022/02/24 07:03:45;;;;;;;0.00;0.00;;;;;;;5.77;99.22;100986.81;10491261;28;20621;-70
2022/02/24 07:08:46;;;;;;;0.00;0.00;;;;;;;5.82;98.31;100984.63;10491702;28;20302;-70
2022/02/24 07:13:46;;;;;;;0.00;0.00;;;;;;;5.86;96.66;100991.34;10490418;28;20027;-70
2022/02/24 07:18:46;;;;;;;0.00;0.00;;;;;;;5.94;96.78;100982.00;10490512;28;20467;-70
2022/02/24 07:23:47;;;;;;;0.00;0.00;;;;;;;5.97;97.25;100977.28;10489966;28;20032;-70
2022/02/24 07:28:47;;;;;;;0.00;0.00;;;;;;;6.00;96.59;100970.91;10492147;28;20390;-70
2022/02/24 07:33:48;;;;;;;0.00;0.00;;;;;;;6.02;97.09;100963.66;10491233;28;20016;-70
2022/02/24 07:38:48;;;;;;;0.10;0.10;;;;;;;6.05;96.72;100961.63;10471609;28;20294;-70
2022/02/24 07:43:49;;;;;;;0.00;0.00;;;;;;;6.09;95.34;100949.81;10492383;28;20173;-70
2022/02/24 07:48:52;;;;;;;0.00;0.00;;;;;;;6.14;96.97;100944.16;10492239;28;20024;-71
2022/02/24 07:53:52;;;;;;;0.00;0.00;;;;;;;6.19;96.87;100944.59;10489890;28;20772;-70
2022/02/24 07:58:52;;;;;;;0.00;0.00;;;;;;;6.26;96.53;100951.06;10474823;28;20024;-70
2022/02/24 08:03:53;;;;;;;0.00;0.00;;;;;;;6.34;96.50;100940.69;10455433;28;20025;-71
2022/02/24 08:08:54;;;;;;;0.00;0.00;;;;;;;6.41;95.71;100937.53;10493235;28;20024;-70
2022/02/24 08:13:54;;;;;;;0.00;0.00;;;;;;;6.48;96.13;100930.75;10491781;28;20055;-70
2022/02/24 08:19:00;;;;;;;0.00;0.00;;;;;;;6.52;96.03;100930.34;10492917;28;20031;-70
2022/02/24 08:24:00;;;;;;;0.00;0.00;;;;;;;6.62;95.67;100930.41;10526665;22;20032;-71
2022/02/24 08:29:00;;;;;;;0.00;0.00;;;;;;;6.70;96.46;100911.22;10553971;27;20047;-72
2022/02/24 08:34:01;;;;;;;0.00;0.00;;;;;;;6.82;94.83;100896.94;10569331;27;20466;-71
2022/02/24 08:39:04;;;;;;;0.00;0.00;;;;;;;7.00;95.00;100897.97;10576671;28;20024;-72
2022/02/24 08:44:05;;;;;;;0.00;0.00;;;;;;;7.26;92.68;100890.38;10580535;28;20303;-71
2022/02/24 08:49:05;;;;;;;0.00;0.00;;;;;;;8.08;90.19;100875.88;10573888;27;20065;-73
2022/02/24 08:54:05;;;;;;;0.00;0.00;;;;;;;8.26;89.91;100869.84;10570969;27;20024;-73
2022/02/24 08:59:06;;;;;;;0.00;0.00;;;;;;;8.12;88.94;100853.41;10572579;27;20047;-74
2022/02/24 09:04:06;;;;;;;0.10;0.10;;;;;;;8.08;88.13;100853.84;10572287;28;20018;-70
2022/02/24 09:09:07;;;;;;;0.10;0.10;;;;;;;8.20;86.88;100839.41;10570460;27;20027;-73
2022/02/24 09:14:07;;;;;;;0.10;0.10;;;;;;;8.21;87.04;100827.00;10567354;27;20160;-73
2022/02/24 09:19:07;;;;;;;0.10;0.10;;;;;;;8.34;87.88;100815.09;10579244;28;20027;-72
2022/02/24 09:24:08;;;;;;;0.10;0.10;;;;;;;8.52;85.34;100806.38;10576776;27;20474;-73
2022/02/24 09:29:08;;;;;;;0.00;0.00;;;;;;;8.47;86.21;100804.19;10565231;27;20059;-72
2022/02/24 09:34:08;;;;;;;0.10;0.10;;;;;;;8.29;86.90;100784.66;10569709;27;20020;-73
2022/02/24 09:39:09;;;;;;;0.10;0.10;;;;;;;8.30;87.06;100789.81;10570610;27;20168;-73
2022/02/24 09:44:09;;;;;;;0.10;0.10;;;;;;;8.25;86.24;100780.63;10560164;27;20022;-73
2022/02/24 09:49:10;;;;;;;0.00;0.00;;;;;;;8.16;86.21;100769.91;10572402;27;20026;-73
2022/02/24 09:54:12;;;;;;;0.10;0.10;;;;;;;8.22;86.76;100738.47;10570752;28;20023;-73
2022/02/24 09:59:14;;;;;;;0.08;0.08;;;;;;;8.39;86.22;100743.03;10576672;27;20023;-73
2022/02/24 10:04:14;;;;;;;0.10;0.10;;;;;;;8.52;87.13;100732.06;10572712;27;20494;-73
2022/02/24 10:09:29;;;;;;;0.05;0.05;;;;;;;8.63;86.48;100713.28;10579605;27;20022;-73
2022/02/24 10:14:31;;;;;;;0.10;0.10;;;;;;;8.77;84.48;100703.97;10569196;27;20466;-73
2022/02/24 10:19:40;;;;;;;0.10;0.10;;;;;;;8.96;82.66;100693.22;10574715;28;20043;-73
2022/02/24 10:24:43;;;;;;;0.10;0.10;;;;;;;8.91;84.28;100684.84;10564557;27;20024;-72
2022/02/24 10:29:59;;;;;;;0.00;0.00;;;;;;;8.93;82.40;100680.22;10549723;27;20031;-73
2022/02/24 10:35:19;;;;;;;0.00;0.00;;;;;;;8.83;83.48;100667.00;10570993;27;20076;-73
2022/02/24 10:40:20;;;;;;;0.00;0.00;;;;;;;8.74;84.19;100667.09;10571470;28;20032;-73
2022/02/24 10:45:24;;;;;;;0.10;0.10;;;;;;;8.98;86.49;100653.19;10569402;28;20023;-73
2022/02/24 10:50:48;;;;;;;0.10;0.10;;;;;;;9.15;83.51;100636.38;10564974;27;20374;-72
2022/02/24 10:55:55;;;;;;;0.10;0.10;;;;;;;9.13;83.53;100621.59;10567421;27;20019;-73
2022/02/24 11:01:20;;;;;;;0.10;0.10;;;;;;;9.18;84.94;100614.00;10574783;28;20030;-73
2022/02/24 11:06:22;;;;;;;0.10;0.10;;;;;;;9.39;83.02;100603.81;10574101;28;20023;-72
2022/02/24 11:11:28;;;;;;;0.03;0.03;;;;;;;9.37;82.54;100605.00;10573810;27;20019;-73
2022/02/24 11:16:29;;;;;;;0.00;0.00;;;;;;;9.25;82.84;100591.09;10572958;28;20390;-73
2022/02/24 11:21:30;;;;;;;0.10;0.10;;;;;;;9.26;83.51;100575.03;10572513;27;20031;-73
2022/02/24 11:26:39;;;;;;;0.10;0.10;;;;;;;9.25;83.51;100554.75;10555596;28;20453;-73
2022/02/24 11:31:42;;;;;;;0.08;0.08;;;;;;;9.06;83.02;100545.16;10571821;28;20016;-73
2022/02/24 11:36:45;;;;;;;0.10;0.10;;;;;;;8.94;84.61;100516.38;10573563;28;20020;-73
2022/02/24 11:41:45;;;;;;;0.00;0.00;;;;;;;8.80;83.71;100501.81;10570942;28;20451;-73
2022/02/24 11:46:56;;;;;;;0.10;0.10;;;;;;;8.97;86.49;100492.97;10567462;28;20055;-73
2022/02/24 11:52:23;;;;;;;0.10;0.10;;;;;;;9.15;85.23;100474.28;10558243;28;20023;-73
2022/02/24 11:57:28;;;;;;;0.10;0.10;;;;;;;9.26;85.07;100457.25;10552999;28;20045;-72
2022/02/24 12:02:42;;;;;;;0.10;0.10;;;;;;;9.45;86.06;100443.72;10549502;27;20096;-73
2022/02/24 12:08:01;;;;;;;;;;;;;;;9.52;84.10;100426.09;10561898;28;20065;-73
2022/02/24 12:13:31;;;;;;;0.00;0.00;;;;;;;9.46;85.92;100408.16;10579831;27;20002;-73
2022/02/24 12:18:39;;;;;;;0.10;0.10;;;;;;;9.38;84.95;100380.72;10583367;27;20023;-73
2022/02/24 12:23:39;;;;;;;0.00;0.00;;;;;;;9.42;86.41;100382.88;10571556;27;20471;-73
2022/02/24 12:28:40;;;;;;;0.08;0.08;;;;;;;9.48;84.70;100368.09;10574665;28;20015;-73
2022/02/24 12:33:40;;;;;;;0.00;0.00;;;;;;;9.46;84.23;100360.28;10580304;28;20285;-73
2022/02/24 12:38:42;;;;;;;0.10;0.10;;;;;;;9.36;83.43;100359.59;10580720;28;20443;-73
2022/02/24 12:43:42;;;;;;;0.10;0.10;;;;;;;9.29;83.47;100351.44;10564969;28;20030;-73
2022/02/24 12:48:42;;;;;;;0.00;0.00;;;;;;;9.28;85.47;100338.34;10584066;27;20012;-73
2022/02/24 12:53:44;;;;;;;0.10;0.10;;;;;;;9.28;86.25;100322.38;10553634;28;20453;-73
2022/02/24 12:58:47;;;;;;;0.00;0.00;;;;;;;9.27;84.28;100313.56;10552528;27;20121;-72
2022/02/24 13:03:47;;;;;;;0.10;0.10;;;;;;;9.27;83.41;100308.25;10549857;27;20027;-73
2022/02/24 13:14:06;;;;;;;0.10;0.10;;;;;;;9.39;82.31;100258.25;10545682;27;20417;-73
2022/02/24 13:19:16;;;;;;;0.10;0.10;;;;;;;9.53;84.71;100244.31;10550354;27;20055;-73
2022/02/24 13:24:29;;;;;;;0.10;0.10;;;;;;;9.45;82.25;100247.00;10542333;27;20031;-73
2022/02/24 13:29:30;;;;;;;0.10;0.10;;;;;;;9.44;85.26;100229.34;10550552;27;20034;-72
2022/02/24 13:34:32;;;;;;;0.10;0.10;;;;;;;9.35;84.32;100219.72;10549813;27;20584;-71
2022/02/24 13:39:35;;;;;;;0.03;0.03;;;;;;;9.32;84.98;100176.72;10550080;27;20011;-72
2022/02/24 13:44:39;;;;;;;0.10;0.10;;;;;;;9.35;85.83;100177.19;10525557;27;20019;-72
2022/02/24 13:49:43;;;;;;;0.00;0.00;;;;;;;9.33;85.37;100192.47;10549347;27;20043;-72
2022/02/24 13:54:52;;;;;;;;;;;;;;;9.36;84.65;100186.00;10553354;27;20559;-71
2022/02/24 14:00:13;;;;;;;0.10;0.10;;;;;;;9.27;82.73;100179.84;10548831;27;19914;-71
2022/02/24 14:05:15;;;;;;;0.10;0.10;;;;;;;9.17;84.55;100160.59;10551013;27;20028;-71
2022/02/24 14:10:17;;;;;;;0.10;0.10;;;;;;;9.17;85.00;100150.81;10548897;27;20039;-72
2022/02/24 14:15:17;;;;;;;0.10;0.10;;;;;;;9.19;83.30;100140.84;10564843;27;20023;-72
2022/02/24 14:20:24;;;;;;;0.10;0.10;;;;;;;9.19;81.99;100118.75;10568443;27;20027;-72
2022/02/24 14:25:24;;;;;;;0.10;0.10;;;;;;;9.23;82.95;100120.91;10528977;22;20059;-68
2022/02/24 14:30:25;;;;;;;0.10;0.10;;;;;;;9.26;82.11;100114.44;10493605;28;20028;-68
2022/02/24 14:35:25;;;;;;;0.00;0.00;;;;;;;9.26;81.89;100109.13;10490620;28;20077;-68
2022/02/24 14:40:25;;;;;;;0.10;0.10;;;;;;;9.26;82.75;100098.47;10489888;28;20024;-68
2022/02/24 14:45:27;;;;;;;0.00;0.00;;;;;;;9.27;83.08;100049.63;10495951;28;20267;-68
2022/02/24 14:50:27;;;;;;;0.10;0.10;;;;;;;9.26;83.78;100040.84;10499241;28;20548;-68
2022/02/24 14:55:28;;;;;;;0.10;0.10;;;;;;;9.19;81.18;100010.66;10489539;28;20024;-68
2022/02/24 15:00:30;;;;;;;0.10;0.10;;;;;;;9.19;81.47;100015.09;10495758;28;20020;-68
2022/02/24 15:05:32;;;;;;;0.05;0.05;;;;;;;9.18;83.39;100008.16;10480249;28;20346;-68
2022/02/24 15:10:32;;;;;;;0.00;0.00;;;;;;;9.18;80.81;99990.38;10494651;28;20067;-68
2022/02/24 15:15:33;;;;;;;0.00;0.00;;;;;;;9.24;84.19;99999.50;10488275;28;20078;-68
2022/02/24 15:20:33;;;;;;;0.10;0.10;;;;;;;9.15;84.15;99996.03;10500451;28;20052;-68
2022/02/24 15:25:34;;;;;;;0.10;0.10;;;;;;;9.05;85.52;99990.91;10492606;28;20066;-68
2022/02/24 15:30:34;;;;;;;0.10;0.10;;;;;;;8.97;83.64;99977.66;10481049;28;20266;-68
2022/02/24 15:35:35;;;;;;;0.00;0.00;;;;;;;8.89;84.92;99969.69;10496239;28;20458;-68
2022/02/24 15:40:35;;;;;;;0.10;0.10;;;;;;;8.81;84.78;99924.56;10489936;28;20398;-68
2022/02/24 15:45:35;;;;;;;0.10;0.10;;;;;;;8.72;85.92;99930.88;10481858;28;20115;-68
2022/02/24 15:50:36;;;;;;;0.00;0.00;;;;;;;8.66;86.65;99920.94;10479418;28;20267;-68
2022/02/24 15:55:37;;;;;;;0.10;0.10;;;;;;;8.54;87.74;99923.94;10489586;28;20541;-68
2022/02/24 16:00:37;;;;;;;0.10;0.10;;;;;;;8.43;87.45;99896.94;10492037;28;20028;-68
2022/02/24 16:05:38;;;;;;;0.10;0.10;;;;;;;8.35;87.93;99879.19;10491762;28;20047;-68
2022/02/24 16:10:39;;;;;;;0.08;0.08;;;;;;;8.29;87.82;99877.16;10491584;28;20039;-67
2022/02/24 16:15:39;;;;;;;0.03;0.03;;;;;;;8.22;89.86;99857.63;10491487;28;20029;-68
2022/02/24 16:20:40;;;;;;;0.10;0.10;;;;;;;8.20;88.25;99867.56;10485020;28;20032;-68
2022/02/24 16:25:40;;;;;;;0.10;0.10;;;;;;;8.18;89.83;99872.22;10490563;28;20044;-68
2022/02/24 16:30:41;;;;;;;0.00;0.00;;;;;;;8.12;92.13;99858.63;10491621;28;20020;-68
2022/02/24 16:35:41;;;;;;;0.00;0.00;;;;;;;8.04;91.96;99860.47;10490498;28;20028;-68
2022/02/24 16:40:42;;;;;;;0.10;0.10;;;;;;;7.99;93.04;99845.03;10491012;28;20050;-68
2022/02/24 16:45:44;;;;;;;0.10;0.10;;;;;;;7.94;93.36;99864.09;10493325;28;20028;-68
2022/02/24 16:50:45;;;;;;;0.10;0.10;;;;;;;7.83;97.89;99933.38;10494292;28;20029;-68
2022/02/24 16:55:46;;;;;;;0.10;0.10;;;;;;;6.26;100.00;100025.31;10539621;28;20028;-69
2022/02/24 17:00:46;;;;;;;0.00;0.00;;;;;;;5.34;100.00;100044.72;10539946;28;20032;-69
2022/02/24 17:05:46;;;;;;;0.10;0.10;;;;;;;4.88;100.00;100064.81;10539835;28;20020;-69
2022/02/24 17:10:47;;;;;;;0.00;0.00;;;;;;;4.62;100.00;100093.59;10540000;28;20043;-69
2022/02/24 17:15:48;;;;;;;0.00;0.00;;;;;;;4.42;100.00;100126.19;10538792;28;20382;-69
2022/02/24 17:20:49;;;;;;;0.00;0.00;;;;;;;4.13;100.00;100147.22;10523976;28;20029;-69
2022/02/24 17:25:51;;;;;;;0.00;0.00;;;;;;;3.73;100.00;100166.50;10496261;28;20031;-69
2022/02/24 17:30:51;;;;;;;0.00;0.00;;;;;;;3.29;100.00;100189.50;10496984;28;20486;-69
2022/02/24 17:35:52;;;;;;;0.00;0.00;;;;;;;3.04;100.00;100186.25;10496343;28;20112;-70
2022/02/24 17:40:52;;;;;;;0.00;0.00;;;;;;;2.89;100.00;100177.00;10496708;28;20028;-70
2022/02/24 17:45:53;;;;;;;0.00;0.00;;;;;;;2.74;100.00;100183.53;10496215;28;20103;-70
2022/02/24 17:50:54;;;;;;;0.00;0.00;;;;;;;2.73;100.00;100240.53;10489074;28;20028;-71
2022/02/24 17:55:55;;;;;;;0.00;0.00;;;;;;;2.68;100.00;100256.69;10494556;28;20479;-70
2022/02/24 18:00:55;;;;;;;0.00;0.00;;;;;;;2.65;100.00;100270.09;10495871;28;20039;-70
2022/02/24 18:05:55;;;;;;;0.00;0.00;;;;;;;2.69;100.00;100304.84;10495201;28;20021;-70
2022/02/24 18:10:56;;;;;;;0.00;0.00;;;;;;;2.65;100.00;100299.00;10496146;28;20195;-71
2022/02/24 18:15:56;;;;;;;0.00;0.00;;;;;;;2.68;100.00;100322.44;10493628;28;20463;-70
2022/02/24 18:20:57;;;;;;;0.00;0.00;;;;;;;2.71;100.00;100324.81;10488556;28;20077;-70
2022/02/24 18:25:57;;;;;;;0.00;0.00;;;;;;;2.72;100.00;100344.06;10492463;28;20031;-70
2022/02/24 18:30:57;;;;;;;0.00;0.00;;;;;;;2.66;100.00;100352.44;10493281;28;20448;-70
2022/02/24 18:35:58;;;;;;;0.00;0.00;;;;;;;2.62;100.00;100378.13;10476116;28;20471;-70
2022/02/24 18:40:58;;;;;;;0.00;0.00;;;;;;;2.59;100.00;100395.91;10494066;28;20467;-70
2022/02/24 18:45:58;;;;;;;0.00;0.00;;;;;;;2.53;100.00;100394.63;10493812;28;20021;-70
2022/02/24 18:50:59;;;;;;;0.00;0.00;;;;;;;2.48;100.00;100416.00;10487256;28;20486;-70
2022/02/24 18:55:59;;;;;;;0.00;0.00;;;;;;;2.44;100.00;100424.22;10493195;28;20325;-70
2022/02/24 19:01:00;;;;;;;0.00;0.00;;;;;;;2.42;100.00;100462.97;10493436;28;20079;-70
2022/02/24 19:06:00;;;;;;;0.00;0.00;;;;;;;2.41;100.00;100456.84;10491245;28;20115;-70
2022/02/24 19:11:00;;;;;;;0.00;0.00;;;;;;;2.43;100.00;100490.91;10492296;28;20452;-70
2022/02/24 19:16:01;;;;;;;0.00;0.00;;;;;;;2.43;100.00;100498.78;10492538;28;20426;-70
2022/02/24 19:21:01;;;;;;;0.00;0.00;;;;;;;2.47;100.00;100494.97;10486395;28;20017;-70
2022/02/24 19:26:02;;;;;;;0.00;0.00;;;;;;;2.47;100.00;100514.25;10492552;28;20036;-70
2022/02/24 19:31:03;;;;;;;0.00;0.00;;;;;;;2.49;100.00;100527.25;10492725;28;20563;-70
2022/02/24 19:36:03;;;;;;;0.10;0.10;;;;;;;2.48;100.00;100531.69;10487244;28;20103;-69
2022/02/24 19:41:04;;;;;;;0.00;0.00;;;;;;;2.46;100.00;100538.00;10476146;28;20111;-69
2022/02/24 19:46:05;;;;;;;0.00;0.00;;;;;;;2.44;100.00;100553.03;10444458;28;20107;-70
2022/02/24 19:51:06;;;;;;;0.00;0.00;;;;;;;2.41;100.00;100550.63;10466089;28;20031;-70
2022/02/24 19:56:06;;;;;;;0.00;0.00;;;;;;;2.41;100.00;100561.16;10475806;28;20541;-70
2022/02/24 20:01:07;;;;;;;0.00;0.00;;;;;;;2.38;100.00;100582.41;10474627;28;20154;-69
2022/02/24 20:06:07;;;;;;;0.00;0.00;;;;;;;2.28;100.00;100560.41;10479502;28;20251;-69
2022/02/24 20:11:07;;;;;;;0.00;0.00;;;;;;;2.24;100.00;100552.72;10478061;28;20021;-69
2022/02/24 20:16:07;;;;;;;0.00;0.00;;;;;;;2.18;100.00;100571.59;10470004;28;20055;-69
2022/02/24 20:21:11;;;;;;;0.00;0.00;;;;;;;2.10;100.00;100578.34;10475706;28;20097;-69
2022/02/24 20:26:12;;;;;;;0.00;0.00;;;;;;;2.10;100.00;100579.19;10483956;28;20266;-70
2022/02/24 20:31:13;;;;;;;0.00;0.00;;;;;;;2.04;100.00;100569.94;10481056;28;20031;-71
2022/02/24 20:36:13;;;;;;;0.00;0.00;;;;;;;1.94;100.00;100579.41;10460476;28;20016;-70
2022/02/24 20:41:13;;;;;;;0.00;0.00;;;;;;;1.84;100.00;100588.09;10480511;28;20155;-70
2022/02/24 20:46:16;;;;;;;0.00;0.00;;;;;;;1.78;100.00;100590.19;10478255;28;20024;-70
2022/02/24 20:51:18;;;;;;;0.00;0.00;;;;;;;1.74;100.00;100608.88;10486270;28;20047;-70
2022/02/24 20:56:18;;;;;;;0.00;0.00;;;;;;;1.70;100.00;100596.94;10499383;28;20036;-70
2022/02/24 21:01:19;;;;;;;0.00;0.00;;;;;;;1.66;100.00;100619.06;10480152;28;20032;-70
2022/02/24 21:06:19;;;;;;;0.00;0.00;;;;;;;1.63;100.00;100632.41;10478007;28;20403;-70
2022/02/24 21:11:20;;;;;;;0.00;0.00;;;;;;;1.59;100.00;100650.19;10477881;28;20589;-70
2022/02/24 21:16:20;;;;;;;0.00;0.00;;;;;;;1.57;100.00;100659.94;10478943;28;20035;-70
2022/02/24 21:21:21;;;;;;;0.00;0.00;;;;;;;1.55;100.00;100667.94;10485837;28;20031;-70
2022/02/24 21:26:22;;;;;;;0.00;0.00;;;;;;;1.53;100.00;100684.72;10487258;28;20263;-71
2022/02/24 21:31:22;;;;;;;0.00;0.00;;;;;;;1.52;100.00;100683.06;10459386;28;20475;-70
2022/02/24 21:36:22;;;;;;;0.00;0.00;;;;;;;1.57;100.00;100700.19;10476348;28;20275;-70
2022/02/24 21:41:22;;;;;;;0.00;0.00;;;;;;;1.63;100.00;100701.56;10479219;28;20021;-71
2022/02/24 21:46:23;;;;;;;0.00;0.00;;;;;;;1.64;100.00;100707.63;10477994;28;20254;-70
2022/02/24 21:51:23;;;;;;;0.00;0.00;;;;;;;1.61;100.00;100721.81;10484366;28;20048;-71
2022/02/24 21:56:23;;;;;;;0.00;0.00;;;;;;;1.55;100.00;100730.09;10483588;28;20070;-71
2022/02/24 22:01:24;;;;;;;0.00;0.00;;;;;;;1.48;100.00;100734.91;10477422;28;20269;-70
2022/02/24 22:06:24;;;;;;;0.00;0.00;;;;;;;1.49;100.00;100738.41;10473675;28;20009;-71
2022/02/24 22:11:24;;;;;;;0.00;0.00;;;;;;;1.45;100.00;100745.59;10476886;28;20016;-71
2022/02/24 22:16:24;;;;;;;0.00;0.00;;;;;;;1.46;100.00;100752.56;10474658;28;20024;-70
2022/02/24 22:21:25;;;;;;;0.00;0.00;;;;;;;1.51;100.00;100765.34;10483823;28;20029;-71
2022/02/24 22:26:25;;;;;;;0.00;0.00;;;;;;;1.53;100.00;100773.97;10490308;28;20348;-71
2022/02/24 22:31:26;;;;;;;0.00;0.00;;;;;;;1.50;100.00;100784.69;10475426;28;20289;-71
2022/02/24 22:36:26;;;;;;;0.00;0.00;;;;;;;1.44;100.00;100793.81;10474259;28;20021;-70
2022/02/24 22:41:26;;;;;;;0.00;0.00;;;;;;;1.37;100.00;100803.03;10475221;28;20016;-71
2022/02/24 22:46:26;;;;;;;0.00;0.00;;;;;;;1.30;100.00;100807.84;10474274;28;20267;-70
2022/02/24 22:51:28;;;;;;;0.00;0.00;;;;;;;1.24;100.00;100815.28;10481730;28;20271;-71
2022/02/24 22:56:28;;;;;;;0.00;0.00;;;;;;;1.24;100.00;100821.34;10482084;28;20545;-71
2022/02/24 23:01:29;;;;;;;0.00;0.00;;;;;;;1.27;100.00;100822.94;10477117;28;20024;-71
2022/02/24 23:06:29;;;;;;;0.00;0.00;;;;;;;1.32;100.00;100826.94;10474089;28;20721;-71
2022/02/24 23:11:29;;;;;;;0.00;0.00;;;;;;;1.38;100.00;100840.63;10474169;28;20016;-71
2022/02/24 23:16:31;;;;;;;0.00;0.00;;;;;;;1.40;100.00;100846.59;10473316;28;20029;-71
2022/02/24 23:21:31;;;;;;;0.00;0.00;;;;;;;1.39;100.00;100848.38;10480443;28;20023;-71
2022/02/24 23:26:33;;;;;;;0.00;0.00;;;;;;;1.39;100.00;100844.91;10482461;28;20047;-71